sensor_id;sensor_type;location;lat;lon;timestamp;pressure;altitude;pressure_sealevel;temperature
25514;BMP180;48128;54.242;10.280;2023-09-12T00:01:20;100743.00;;;19.00
25514;BMP180;48128;54.242;10.280;2023-09-12T00:03:47;100729.00;;;18.90
25514;BMP180;48128;54.242;10.280;2023-09-12T00:06:14;100737.00;;;18.90
25514;BMP180;48128;54.242;10.280;2023-09-12T00:08:41;100744.00;;;18.90
25514;BMP180;48128;54.242;10.280;2023-09-12T00:11:09;100751.00;;;18.90
25514;BMP180;48128;54.242;10.280;2023-09-12T00:13:38;100748.00;;;18.80
25514;BMP180;48128;54.242;10.280;2023-09-12T00:16:05;100748.00;;;18.80
25514;BMP180;48128;54.242;10.280;2023-09-12T00:18:32;100743.00;;;18.80
25514;BMP180;48128;54.242;10.280;2023-09-12T00:21:02;100747.00;;;18.80
25514;BMP180;48128;54.242;10.280;2023-09-12T00:23:29;100744.00;;;18.80
25514;BMP180;48128;54.242;10.280;2023-09-12T00:25:57;100760.00;;;18.80
25514;BMP180;48128;54.242;10.280;2023-09-12T00:28:24;100779.00;;;18.80
25514;BMP180;48128;54.242;10.280;2023-09-12T00:30:52;100776.00;;;18.80
25514;BMP180;48128;54.242;10.280;2023-09-12T00:33:19;100783.00;;;18.80
25514;BMP180;48128;54.242;10.280;2023-09-12T00:35:46;100783.00;;;18.80
25514;BMP180;48128;54.242;10.280;2023-09-12T00:38:13;100776.00;;;18.80
25514;BMP180;48128;54.242;10.280;2023-09-12T00:40:39;100769.00;;;18.80
25514;BMP180;48128;54.242;10.280;2023-09-12T00:43:06;100780.00;;;18.80
25514;BMP180;48128;54.242;10.280;2023-09-12T00:45:33;100777.00;;;18.80
25514;BMP180;48128;54.242;10.280;2023-09-12T00:48:00;100791.00;;;18.80
25514;BMP180;48128;54.242;10.280;2023-09-12T00:50:28;100781.00;;;18.80
25514;BMP180;48128;54.242;10.280;2023-09-12T00:52:56;100780.00;;;18.80
25514;BMP180;48128;54.242;10.280;2023-09-12T00:55:23;100786.00;;;18.80
25514;BMP180;48128;54.242;10.280;2023-09-12T00:57:51;100782.00;;;18.80
25514;BMP180;48128;54.242;10.280;2023-09-12T01:00:19;100794.00;;;18.80
25514;BMP180;48128;54.242;10.280;2023-09-12T01:02:46;100772.00;;;18.80
25514;BMP180;48128;54.242;10.280;2023-09-12T01:05:14;100772.00;;;18.80
25514;BMP180;48128;54.242;10.280;2023-09-12T01:07:42;100772.00;;;18.80
25514;BMP180;48128;54.242;10.280;2023-09-12T01:10:09;100766.00;;;18.80
25514;BMP180;48128;54.242;10.280;2023-09-12T01:12:36;100761.00;;;18.80
25514;BMP180;48128;54.242;10.280;2023-09-12T01:15:04;100750.00;;;18.80
25514;BMP180;48128;54.242;10.280;2023-09-12T01:17:44;100753.00;;;18.80
25514;BMP180;48128;54.242;10.280;2023-09-12T01:20:16;100755.00;;;18.80
25514;BMP180;48128;54.242;10.280;2023-09-12T01:28:26;100753.00;;;18.80
25514;BMP180;48128;54.242;10.280;2023-09-12T01:30:56;100753.00;;;18.80
25514;BMP180;48128;54.242;10.280;2023-09-12T01:33:24;100752.00;;;18.80
25514;BMP180;48128;54.242;10.280;2023-09-12T01:35:51;100754.00;;;18.80
25514;BMP180;48128;54.242;10.280;2023-09-12T01:38:18;100755.00;;;18.80
25514;BMP180;48128;54.242;10.280;2023-09-12T01:40:52;100744.00;;;18.80
25514;BMP180;48128;54.242;10.280;2023-09-12T01:43:22;100736.00;;;18.80
25514;BMP180;48128;54.242;10.280;2023-09-12T01:45:57;100734.00;;;18.80
25514;BMP180;48128;54.242;10.280;2023-09-12T01:48:28;100724.00;;;18.80
25514;BMP180;48128;54.242;10.280;2023-09-12T01:51:01;100715.00;;;18.80
25514;BMP180;48128;54.242;10.280;2023-09-12T01:53:28;100725.00;;;18.80
25514;BMP180;48128;54.242;10.280;2023-09-12T01:55:57;100728.00;;;18.80
25514;BMP180;48128;54.242;10.280;2023-09-12T01:58:25;100725.00;;;18.80
25514;BMP180;48128;54.242;10.280;2023-09-12T02:00:52;100720.00;;;18.80
25514;BMP180;48128;54.242;10.280;2023-09-12T02:03:19;100719.00;;;18.80
25514;BMP180;48128;54.242;10.280;2023-09-12T02:05:46;100710.00;;;18.80
25514;BMP180;48128;54.242;10.280;2023-09-12T02:08:13;100714.00;;;18.80
25514;BMP180;48128;54.242;10.280;2023-09-12T02:10:40;100720.00;;;18.80
25514;BMP180;48128;54.242;10.280;2023-09-12T02:13:07;100715.00;;;18.80
25514;BMP180;48128;54.242;10.280;2023-09-12T02:15:34;100738.00;;;18.80
25514;BMP180;48128;54.242;10.280;2023-09-12T02:18:01;100749.00;;;18.80
25514;BMP180;48128;54.242;10.280;2023-09-12T02:20:28;100740.00;;;18.80
25514;BMP180;48128;54.242;10.280;2023-09-12T02:22:55;100745.00;;;18.80
25514;BMP180;48128;54.242;10.280;2023-09-12T02:25:21;100749.00;;;18.80
25514;BMP180;48128;54.242;10.280;2023-09-12T02:27:48;100733.00;;;18.80
25514;BMP180;48128;54.242;10.280;2023-09-12T02:30:15;100725.00;;;18.80
25514;BMP180;48128;54.242;10.280;2023-09-12T02:32:42;100720.00;;;18.80
25514;BMP180;48128;54.242;10.280;2023-09-12T02:35:09;100730.00;;;18.80
25514;BMP180;48128;54.242;10.280;2023-09-12T02:37:36;100729.00;;;18.80
25514;BMP180;48128;54.242;10.280;2023-09-12T02:40:03;100739.00;;;18.80
25514;BMP180;48128;54.242;10.280;2023-09-12T02:42:32;100746.00;;;18.80
25514;BMP180;48128;54.242;10.280;2023-09-12T02:44:59;100752.00;;;18.80
25514;BMP180;48128;54.242;10.280;2023-09-12T02:47:26;100750.00;;;18.80
25514;BMP180;48128;54.242;10.280;2023-09-12T02:49:53;100743.00;;;18.80
25514;BMP180;48128;54.242;10.280;2023-09-12T02:52:20;100752.00;;;18.80
25514;BMP180;48128;54.242;10.280;2023-09-12T02:54:47;100768.00;;;18.80
25514;BMP180;48128;54.242;10.280;2023-09-12T02:57:13;100776.00;;;18.80
25514;BMP180;48128;54.242;10.280;2023-09-12T02:59:40;100764.00;;;18.80
25514;BMP180;48128;54.242;10.280;2023-09-12T03:02:07;100756.00;;;18.80
25514;BMP180;48128;54.242;10.280;2023-09-12T03:04:35;100759.00;;;18.80
25514;BMP180;48128;54.242;10.280;2023-09-12T03:07:02;100755.00;;;18.80
25514;BMP180;48128;54.242;10.280;2023-09-12T03:09:29;100751.00;;;18.80
25514;BMP180;48128;54.242;10.280;2023-09-12T03:11:56;100762.00;;;18.80
25514;BMP180;48128;54.242;10.280;2023-09-12T03:14:22;100757.00;;;18.80
25514;BMP180;48128;54.242;10.280;2023-09-12T03:16:49;100769.00;;;18.80
25514;BMP180;48128;54.242;10.280;2023-09-12T03:19:16;100766.00;;;18.80
25514;BMP180;48128;54.242;10.280;2023-09-12T03:21:43;100757.00;;;18.80
25514;BMP180;48128;54.242;10.280;2023-09-12T03:24:10;100751.00;;;18.90
25514;BMP180;48128;54.242;10.280;2023-09-12T03:26:37;100743.00;;;18.80
25514;BMP180;48128;54.242;10.280;2023-09-12T03:29:04;100751.00;;;18.80
25514;BMP180;48128;54.242;10.280;2023-09-12T03:31:31;100752.00;;;18.80
25514;BMP180;48128;54.242;10.280;2023-09-12T03:33:58;100740.00;;;18.80
25514;BMP180;48128;54.242;10.280;2023-09-12T03:36:25;100739.00;;;18.80
25514;BMP180;48128;54.242;10.280;2023-09-12T03:38:52;100751.00;;;18.80
25514;BMP180;48128;54.242;10.280;2023-09-12T03:41:19;100752.00;;;18.80
25514;BMP180;48128;54.242;10.280;2023-09-12T03:43:48;100768.00;;;18.70
25514;BMP180;48128;54.242;10.280;2023-09-12T03:46:15;100758.00;;;18.70
25514;BMP180;48128;54.242;10.280;2023-09-12T03:48:42;100769.00;;;18.70
25514;BMP180;48128;54.242;10.280;2023-09-12T03:51:09;100768.00;;;18.70
25514;BMP180;48128;54.242;10.280;2023-09-12T03:53:36;100766.00;;;18.70
25514;BMP180;48128;54.242;10.280;2023-09-12T03:56:03;100760.00;;;18.70
25514;BMP180;48128;54.242;10.280;2023-09-12T03:58:30;100750.00;;;18.80
25514;BMP180;48128;54.242;10.280;2023-09-12T04:00:57;100765.00;;;18.70
25514;BMP180;48128;54.242;10.280;2023-09-12T04:03:24;100770.00;;;18.70
25514;BMP180;48128;54.242;10.280;2023-09-12T04:05:51;100762.00;;;18.70
25514;BMP180;48128;54.242;10.280;2023-09-12T04:08:18;100766.00;;;18.70
25514;BMP180;48128;54.242;10.280;2023-09-12T04:10:45;100762.00;;;18.70
25514;BMP180;48128;54.242;10.280;2023-09-12T04:13:12;100759.00;;;18.70
25514;BMP180;48128;54.242;10.280;2023-09-12T04:15:38;100749.00;;;18.70
25514;BMP180;48128;54.242;10.280;2023-09-12T04:18:06;100762.00;;;18.70
25514;BMP180;48128;54.242;10.280;2023-09-12T04:20:33;100757.00;;;18.70
25514;BMP180;48128;54.242;10.280;2023-09-12T04:23:03;100756.00;;;18.70
25514;BMP180;48128;54.242;10.280;2023-09-12T04:25:30;100756.00;;;18.70
25514;BMP180;48128;54.242;10.280;2023-09-12T04:27:57;100764.00;;;18.70
25514;BMP180;48128;54.242;10.280;2023-09-12T04:30:24;100761.00;;;18.70
25514;BMP180;48128;54.242;10.280;2023-09-12T04:32:51;100765.00;;;18.70
25514;BMP180;48128;54.242;10.280;2023-09-12T04:35:18;100760.00;;;18.70
25514;BMP180;48128;54.242;10.280;2023-09-12T04:37:47;100770.00;;;18.60
25514;BMP180;48128;54.242;10.280;2023-09-12T04:40:14;100758.00;;;18.60
25514;BMP180;48128;54.242;10.280;2023-09-12T04:42:41;100764.00;;;18.60
25514;BMP180;48128;54.242;10.280;2023-09-12T04:45:09;100766.00;;;18.60
25514;BMP180;48128;54.242;10.280;2023-09-12T04:47:35;100752.00;;;18.60
25514;BMP180;48128;54.242;10.280;2023-09-12T04:50:03;100758.00;;;18.60
25514;BMP180;48128;54.242;10.280;2023-09-12T04:52:29;100747.00;;;18.60
25514;BMP180;48128;54.242;10.280;2023-09-12T04:55:00;100751.00;;;18.60
25514;BMP180;48128;54.242;10.280;2023-09-12T04:57:27;100749.00;;;18.60
25514;BMP180;48128;54.242;10.280;2023-09-12T04:59:57;100761.00;;;18.60
25514;BMP180;48128;54.242;10.280;2023-09-12T05:02:27;100754.00;;;18.60
25514;BMP180;48128;54.242;10.280;2023-09-12T05:04:55;100741.00;;;18.60
25514;BMP180;48128;54.242;10.280;2023-09-12T05:07:22;100747.00;;;18.60
25514;BMP180;48128;54.242;10.280;2023-09-12T05:09:49;100746.00;;;18.60
25514;BMP180;48128;54.242;10.280;2023-09-12T05:12:16;100747.00;;;18.60
25514;BMP180;48128;54.242;10.280;2023-09-12T05:14:43;100743.00;;;18.60
25514;BMP180;48128;54.242;10.280;2023-09-12T05:17:09;100749.00;;;18.70
25514;BMP180;48128;54.242;10.280;2023-09-12T05:19:36;100744.00;;;18.70
25514;BMP180;48128;54.242;10.280;2023-09-12T05:22:03;100753.00;;;18.70
25514;BMP180;48128;54.242;10.280;2023-09-12T05:24:30;100753.00;;;18.70
25514;BMP180;48128;54.242;10.280;2023-09-12T05:26:57;100749.00;;;18.70
25514;BMP180;48128;54.242;10.280;2023-09-12T05:29:24;100747.00;;;18.70
25514;BMP180;48128;54.242;10.280;2023-09-12T05:31:51;100743.00;;;18.70
25514;BMP180;48128;54.242;10.280;2023-09-12T05:34:18;100747.00;;;18.70
25514;BMP180;48128;54.242;10.280;2023-09-12T05:36:45;100758.00;;;18.70
25514;BMP180;48128;54.242;10.280;2023-09-12T05:39:12;100756.00;;;18.70
25514;BMP180;48128;54.242;10.280;2023-09-12T05:41:40;100766.00;;;18.80
25514;BMP180;48128;54.242;10.280;2023-09-12T05:44:07;100757.00;;;18.80
25514;BMP180;48128;54.242;10.280;2023-09-12T05:46:34;100765.00;;;18.80
25514;BMP180;48128;54.242;10.280;2023-09-12T05:49:01;100763.00;;;18.80
25514;BMP180;48128;54.242;10.280;2023-09-12T05:51:28;100765.00;;;18.80
25514;BMP180;48128;54.242;10.280;2023-09-12T05:53:55;100770.00;;;18.80
25514;BMP180;48128;54.242;10.280;2023-09-12T05:56:22;100772.00;;;18.80
25514;BMP180;48128;54.242;10.280;2023-09-12T05:58:49;100759.00;;;18.80
25514;BMP180;48128;54.242;10.280;2023-09-12T06:01:16;100765.00;;;18.80
25514;BMP180;48128;54.242;10.280;2023-09-12T06:03:44;100774.00;;;18.90
25514;BMP180;48128;54.242;10.280;2023-09-12T06:06:11;100786.00;;;18.90
25514;BMP180;48128;54.242;10.280;2023-09-12T06:08:39;100784.00;;;18.90
25514;BMP180;48128;54.242;10.280;2023-09-12T06:11:07;100781.00;;;18.90
25514;BMP180;48128;54.242;10.280;2023-09-12T06:13:33;100780.00;;;18.90
25514;BMP180;48128;54.242;10.280;2023-09-12T06:16:05;100796.00;;;19.00
25514;BMP180;48128;54.242;10.280;2023-09-12T06:18:35;100788.00;;;19.00
25514;BMP180;48128;54.242;10.280;2023-09-12T06:21:02;100789.00;;;19.00
25514;BMP180;48128;54.242;10.280;2023-09-12T06:23:30;100788.00;;;19.00
25514;BMP180;48128;54.242;10.280;2023-09-12T06:25:58;100789.00;;;19.00
25514;BMP180;48128;54.242;10.280;2023-09-12T06:28:29;100785.00;;;19.10
25514;BMP180;48128;54.242;10.280;2023-09-12T06:30:57;100792.00;;;19.10
25514;BMP180;48128;54.242;10.280;2023-09-12T06:33:25;100788.00;;;19.10
25514;BMP180;48128;54.242;10.280;2023-09-12T06:35:53;100798.00;;;19.10
25514;BMP180;48128;54.242;10.280;2023-09-12T06:38:21;100795.00;;;19.20
25514;BMP180;48128;54.242;10.280;2023-09-12T06:40:48;100795.00;;;19.20
25514;BMP180;48128;54.242;10.280;2023-09-12T06:43:15;100789.00;;;19.20
25514;BMP180;48128;54.242;10.280;2023-09-12T06:45:43;100793.00;;;19.30
25514;BMP180;48128;54.242;10.280;2023-09-12T06:48:10;100788.00;;;19.30
25514;BMP180;48128;54.242;10.280;2023-09-12T06:50:37;100793.00;;;19.40
25514;BMP180;48128;54.242;10.280;2023-09-12T06:53:05;100797.00;;;19.40
25514;BMP180;48128;54.242;10.280;2023-09-12T06:55:36;100797.00;;;19.50
25514;BMP180;48128;54.242;10.280;2023-09-12T06:58:04;100797.00;;;19.50
25514;BMP180;48128;54.242;10.280;2023-09-12T07:00:30;100792.00;;;19.60
25514;BMP180;48128;54.242;10.280;2023-09-12T07:02:58;100785.00;;;19.70
25514;BMP180;48128;54.242;10.280;2023-09-12T07:05:25;100796.00;;;19.70
25514;BMP180;48128;54.242;10.280;2023-09-12T07:07:52;100790.00;;;19.70
25514;BMP180;48128;54.242;10.280;2023-09-12T07:10:19;100781.00;;;19.70
25514;BMP180;48128;54.242;10.280;2023-09-12T07:12:52;100788.00;;;19.70
25514;BMP180;48128;54.242;10.280;2023-09-12T07:15:20;100779.00;;;19.70
25514;BMP180;48128;54.242;10.280;2023-09-12T07:17:47;100781.00;;;19.70
25514;BMP180;48128;54.242;10.280;2023-09-12T07:20:14;100784.00;;;19.70
25514;BMP180;48128;54.242;10.280;2023-09-12T07:22:42;100787.00;;;19.70
25514;BMP180;48128;54.242;10.280;2023-09-12T07:25:09;100795.00;;;19.80
25514;BMP180;48128;54.242;10.280;2023-09-12T07:27:38;100792.00;;;19.80
25514;BMP180;48128;54.242;10.280;2023-09-12T07:30:06;100790.00;;;19.80
25514;BMP180;48128;54.242;10.280;2023-09-12T07:32:33;100792.00;;;19.70
25514;BMP180;48128;54.242;10.280;2023-09-12T07:35:00;100797.00;;;19.70
25514;BMP180;48128;54.242;10.280;2023-09-12T07:37:27;100793.00;;;19.80
25514;BMP180;48128;54.242;10.280;2023-09-12T07:39:54;100789.00;;;19.90
25514;BMP180;48128;54.242;10.280;2023-09-12T07:42:22;100792.00;;;19.90
25514;BMP180;48128;54.242;10.280;2023-09-12T07:44:49;100796.00;;;19.90
25514;BMP180;48128;54.242;10.280;2023-09-12T07:47:17;100791.00;;;20.00
25514;BMP180;48128;54.242;10.280;2023-09-12T07:49:44;100785.00;;;20.10
25514;BMP180;48128;54.242;10.280;2023-09-12T07:52:11;100782.00;;;20.20
25514;BMP180;48128;54.242;10.280;2023-09-12T07:54:38;100777.00;;;20.30
25514;BMP180;48128;54.242;10.280;2023-09-12T07:57:05;100782.00;;;20.40
25514;BMP180;48128;54.242;10.280;2023-09-12T07:59:31;100771.00;;;20.50
25514;BMP180;48128;54.242;10.280;2023-09-12T08:01:59;100780.00;;;20.60
25514;BMP180;48128;54.242;10.280;2023-09-12T08:04:26;100778.00;;;20.70
25514;BMP180;48128;54.242;10.280;2023-09-12T08:06:53;100781.00;;;20.70
25514;BMP180;48128;54.242;10.280;2023-09-12T08:09:34;100781.00;;;20.80
25514;BMP180;48128;54.242;10.280;2023-09-12T08:12:11;100773.00;;;20.80
25514;BMP180;48128;54.242;10.280;2023-09-12T08:14:37;100767.00;;;20.90
25514;BMP180;48128;54.242;10.280;2023-09-12T08:17:05;100784.00;;;20.90
25514;BMP180;48128;54.242;10.280;2023-09-12T08:19:33;100770.00;;;20.90
25514;BMP180;48128;54.242;10.280;2023-09-12T08:22:00;100770.00;;;20.80
25514;BMP180;48128;54.242;10.280;2023-09-12T08:24:27;100766.00;;;20.90
25514;BMP180;48128;54.242;10.280;2023-09-12T08:26:53;100763.00;;;20.90
25514;BMP180;48128;54.242;10.280;2023-09-12T08:29:21;100762.00;;;20.90
25514;BMP180;48128;54.242;10.280;2023-09-12T08:31:48;100756.00;;;21.00
25514;BMP180;48128;54.242;10.280;2023-09-12T08:34:15;100762.00;;;21.10
25514;BMP180;48128;54.242;10.280;2023-09-12T08:36:42;100765.00;;;21.30
25514;BMP180;48128;54.242;10.280;2023-09-12T08:39:13;100772.00;;;21.40
25514;BMP180;48128;54.242;10.280;2023-09-12T08:41:40;100774.00;;;21.50
25514;BMP180;48128;54.242;10.280;2023-09-12T08:44:08;100774.00;;;21.60
25514;BMP180;48128;54.242;10.280;2023-09-12T08:46:35;100781.00;;;21.70
25514;BMP180;48128;54.242;10.280;2023-09-12T08:49:05;100804.00;;;21.70
25514;BMP180;48128;54.242;10.280;2023-09-12T08:51:33;100785.00;;;21.90
25514;BMP180;48128;54.242;10.280;2023-09-12T08:54:00;100811.00;;;22.00
25514;BMP180;48128;54.242;10.280;2023-09-12T08:56:27;100804.00;;;22.00
25514;BMP180;48128;54.242;10.280;2023-09-12T08:58:54;100820.00;;;21.90
25514;BMP180;48128;54.242;10.280;2023-09-12T09:01:21;100812.00;;;21.80
25514;BMP180;48128;54.242;10.280;2023-09-12T09:03:48;100823.00;;;21.80
25514;BMP180;48128;54.242;10.280;2023-09-12T09:06:15;100807.00;;;21.90
25514;BMP180;48128;54.242;10.280;2023-09-12T09:08:43;100823.00;;;22.20
25514;BMP180;48128;54.242;10.280;2023-09-12T09:11:11;100829.00;;;22.20
25514;BMP180;48128;54.242;10.280;2023-09-12T09:13:38;100832.00;;;22.20
25514;BMP180;48128;54.242;10.280;2023-09-12T09:19:01;100831.00;;;22.30
25514;BMP180;48128;54.242;10.280;2023-09-12T09:21:30;100846.00;;;22.30
25514;BMP180;48128;54.242;10.280;2023-09-12T09:24:07;100847.00;;;22.20
25514;BMP180;48128;54.242;10.280;2023-09-12T09:26:47;100853.00;;;22.30
25514;BMP180;48128;54.242;10.280;2023-09-12T09:29:15;100834.00;;;22.30
25514;BMP180;48128;54.242;10.280;2023-09-12T09:31:44;100844.00;;;22.40
25514;BMP180;48128;54.242;10.280;2023-09-12T09:34:19;100851.00;;;22.40
25514;BMP180;48128;54.242;10.280;2023-09-12T09:36:54;100853.00;;;22.40
25514;BMP180;48128;54.242;10.280;2023-09-12T09:39:26;100859.00;;;22.50
25514;BMP180;48128;54.242;10.280;2023-09-12T09:41:55;100847.00;;;22.70
25514;BMP180;48128;54.242;10.280;2023-09-12T09:44:23;100855.00;;;22.70
25514;BMP180;48128;54.242;10.280;2023-09-12T09:46:59;100864.00;;;22.80
25514;BMP180;48128;54.242;10.280;2023-09-12T09:49:33;100857.00;;;22.70
25514;BMP180;48128;54.242;10.280;2023-09-12T09:52:04;100850.00;;;22.80
25514;BMP180;48128;54.242;10.280;2023-09-12T09:54:31;100852.00;;;22.80
25514;BMP180;48128;54.242;10.280;2023-09-12T09:56:58;100869.00;;;22.90
25514;BMP180;48128;54.242;10.280;2023-09-12T09:59:26;100883.00;;;22.90
25514;BMP180;48128;54.242;10.280;2023-09-12T10:01:57;100894.00;;;22.70
25514;BMP180;48128;54.242;10.280;2023-09-12T10:04:28;100863.00;;;22.60
25514;BMP180;48128;54.242;10.280;2023-09-12T10:06:56;100864.00;;;22.70
25514;BMP180;48128;54.242;10.280;2023-09-12T10:09:27;100864.00;;;23.00
25514;BMP180;48128;54.242;10.280;2023-09-12T10:11:55;100877.00;;;23.10
25514;BMP180;48128;54.242;10.280;2023-09-12T10:14:24;100875.00;;;23.20
25514;BMP180;48128;54.242;10.280;2023-09-12T10:16:56;100872.00;;;23.30
25514;BMP180;48128;54.242;10.280;2023-09-12T10:19:25;100881.00;;;23.50
25514;BMP180;48128;54.242;10.280;2023-09-12T10:24:27;100907.00;;;23.90
25514;BMP180;48128;54.242;10.280;2023-09-12T10:26:55;100904.00;;;23.90
25514;BMP180;48128;54.242;10.280;2023-09-12T10:29:22;100915.00;;;23.90
25514;BMP180;48128;54.242;10.280;2023-09-12T10:31:49;100904.00;;;24.00
25514;BMP180;48128;54.242;10.280;2023-09-12T10:34:16;100909.00;;;24.00
25514;BMP180;48128;54.242;10.280;2023-09-12T10:36:45;100899.00;;;23.90
25514;BMP180;48128;54.242;10.280;2023-09-12T10:39:12;100918.00;;;23.80
25514;BMP180;48128;54.242;10.280;2023-09-12T10:41:40;100899.00;;;23.90
25514;BMP180;48128;54.242;10.280;2023-09-12T10:44:10;100894.00;;;23.90
25514;BMP180;48128;54.242;10.280;2023-09-12T10:46:38;100914.00;;;24.10
25514;BMP180;48128;54.242;10.280;2023-09-12T10:49:10;100915.00;;;24.10
25514;BMP180;48128;54.242;10.280;2023-09-12T10:51:45;100903.00;;;24.00
25514;BMP180;48128;54.242;10.280;2023-09-12T10:54:14;100901.00;;;24.10
25514;BMP180;48128;54.242;10.280;2023-09-12T10:56:41;100908.00;;;24.10
25514;BMP180;48128;54.242;10.280;2023-09-12T10:59:09;100903.00;;;24.00
25514;BMP180;48128;54.242;10.280;2023-09-12T11:01:43;100899.00;;;24.00
25514;BMP180;48128;54.242;10.280;2023-09-12T11:06:47;100893.00;;;24.00
25514;BMP180;48128;54.242;10.280;2023-09-12T11:11:46;100884.00;;;24.00
25514;BMP180;48128;54.242;10.280;2023-09-12T11:14:13;100889.00;;;24.00
25514;BMP180;48128;54.242;10.280;2023-09-12T11:16:42;100887.00;;;24.00
25514;BMP180;48128;54.242;10.280;2023-09-12T11:19:20;100886.00;;;24.00
25514;BMP180;48128;54.242;10.280;2023-09-12T11:21:50;100874.00;;;24.20
25514;BMP180;48128;54.242;10.280;2023-09-12T11:24:18;100883.00;;;24.40
25514;BMP180;48128;54.242;10.280;2023-09-12T11:29:38;100882.00;;;24.90
25514;BMP180;48128;54.242;10.280;2023-09-12T11:32:07;100887.00;;;24.80
25514;BMP180;48128;54.242;10.280;2023-09-12T11:34:38;100883.00;;;24.90
25514;BMP180;48128;54.242;10.280;2023-09-12T11:37:07;100884.00;;;25.00
25514;BMP180;48128;54.242;10.280;2023-09-12T11:39:36;100877.00;;;25.00
25514;BMP180;48128;54.242;10.280;2023-09-12T11:42:04;100893.00;;;24.80
25514;BMP180;48128;54.242;10.280;2023-09-12T11:44:31;100878.00;;;24.70
25514;BMP180;48128;54.242;10.280;2023-09-12T11:47:02;100872.00;;;24.60
25514;BMP180;48128;54.242;10.280;2023-09-12T11:49:41;100870.00;;;24.60
25514;BMP180;48128;54.242;10.280;2023-09-12T11:52:13;100883.00;;;24.40
25514;BMP180;48128;54.242;10.280;2023-09-12T11:54:40;100893.00;;;24.30
25514;BMP180;48128;54.242;10.280;2023-09-12T11:57:12;100871.00;;;24.20
25514;BMP180;48128;54.242;10.280;2023-09-12T11:59:40;100872.00;;;24.00
25514;BMP180;48128;54.242;10.280;2023-09-12T12:02:08;100857.00;;;24.00
25514;BMP180;48128;54.242;10.280;2023-09-12T12:04:36;100866.00;;;23.90
25514;BMP180;48128;54.242;10.280;2023-09-12T12:07:04;100865.00;;;23.70
25514;BMP180;48128;54.242;10.280;2023-09-12T12:09:31;100859.00;;;23.70
25514;BMP180;48128;54.242;10.280;2023-09-12T12:12:24;100855.00;;;23.60
25514;BMP180;48128;54.242;10.280;2023-09-12T12:14:52;100856.00;;;23.50
25514;BMP180;48128;54.242;10.280;2023-09-12T12:17:19;100855.00;;;23.50
25514;BMP180;48128;54.242;10.280;2023-09-12T12:19:46;100850.00;;;23.50
25514;BMP180;48128;54.242;10.280;2023-09-12T12:22:13;100853.00;;;23.50
25514;BMP180;48128;54.242;10.280;2023-09-12T12:24:47;100846.00;;;23.40
25514;BMP180;48128;54.242;10.280;2023-09-12T12:27:14;100848.00;;;23.40
25514;BMP180;48128;54.242;10.280;2023-09-12T12:29:41;100839.00;;;23.40
25514;BMP180;48128;54.242;10.280;2023-09-12T12:32:10;100847.00;;;23.40
25514;BMP180;48128;54.242;10.280;2023-09-12T12:34:39;100854.00;;;23.40
25514;BMP180;48128;54.242;10.280;2023-09-12T12:37:28;100839.00;;;23.40
25514;BMP180;48128;54.242;10.280;2023-09-12T12:39:57;100847.00;;;23.40
25514;BMP180;48128;54.242;10.280;2023-09-12T12:42:32;100850.00;;;23.30
25514;BMP180;48128;54.242;10.280;2023-09-12T12:45:16;100844.00;;;23.30
25514;BMP180;48128;54.242;10.280;2023-09-12T12:47:43;100828.00;;;23.30
25514;BMP180;48128;54.242;10.280;2023-09-12T12:50:16;100833.00;;;23.30
25514;BMP180;48128;54.242;10.280;2023-09-12T12:52:48;100829.00;;;23.30
25514;BMP180;48128;54.242;10.280;2023-09-12T12:55:15;100831.00;;;23.30
25514;BMP180;48128;54.242;10.280;2023-09-12T12:57:44;100829.00;;;23.30
25514;BMP180;48128;54.242;10.280;2023-09-12T13:00:15;100822.00;;;23.30
25514;BMP180;48128;54.242;10.280;2023-09-12T13:02:43;100826.00;;;23.30
25514;BMP180;48128;54.242;10.280;2023-09-12T13:05:24;100817.00;;;23.20
25514;BMP180;48128;54.242;10.280;2023-09-12T13:07:51;100821.00;;;23.20
25514;BMP180;48128;54.242;10.280;2023-09-12T13:10:21;100820.00;;;23.10
25514;BMP180;48128;54.242;10.280;2023-09-12T13:12:49;100824.00;;;23.00
25514;BMP180;48128;54.242;10.280;2023-09-12T13:15:16;100808.00;;;22.90
25514;BMP180;48128;54.242;10.280;2023-09-12T13:17:45;100792.00;;;22.90
25514;BMP180;48128;54.242;10.280;2023-09-12T13:20:12;100797.00;;;22.90
25514;BMP180;48128;54.242;10.280;2023-09-12T13:22:39;100796.00;;;22.80
25514;BMP180;48128;54.242;10.280;2023-09-12T13:25:06;100797.00;;;22.80
25514;BMP180;48128;54.242;10.280;2023-09-12T13:27:34;100797.00;;;22.90
25514;BMP180;48128;54.242;10.280;2023-09-12T13:30:01;100800.00;;;23.00
25514;BMP180;48128;54.242;10.280;2023-09-12T13:32:28;100817.00;;;23.10
25514;BMP180;48128;54.242;10.280;2023-09-12T13:34:55;100793.00;;;23.20
25514;BMP180;48128;54.242;10.280;2023-09-12T13:37:22;100807.00;;;23.30
25514;BMP180;48128;54.242;10.280;2023-09-12T13:39:48;100803.00;;;23.40
25514;BMP180;48128;54.242;10.280;2023-09-12T13:42:16;100814.00;;;23.50
25514;BMP180;48128;54.242;10.280;2023-09-12T13:44:48;100821.00;;;23.70
25514;BMP180;48128;54.242;10.280;2023-09-12T13:47:15;100836.00;;;23.80
25514;BMP180;48128;54.242;10.280;2023-09-12T13:49:49;100838.00;;;23.70
25514;BMP180;48128;54.242;10.280;2023-09-12T13:52:21;100849.00;;;23.70
25514;BMP180;48128;54.242;10.280;2023-09-12T13:54:48;100845.00;;;23.70
25514;BMP180;48128;54.242;10.280;2023-09-12T13:57:15;100830.00;;;23.70
25514;BMP180;48128;54.242;10.280;2023-09-12T13:59:43;100834.00;;;23.70
25514;BMP180;48128;54.242;10.280;2023-09-12T14:02:12;100830.00;;;23.80
25514;BMP180;48128;54.242;10.280;2023-09-12T14:04:40;100848.00;;;23.80
25514;BMP180;48128;54.242;10.280;2023-09-12T14:07:08;100852.00;;;23.80
25514;BMP180;48128;54.242;10.280;2023-09-12T14:09:36;100828.00;;;23.90